• Join FlightAware (Why Join?)
  • Login
  • US Flag 
05:39AM EDT


 

Airport Tracker/Info


-or-


 

Live Flight TrackerFlight Track Log ✈ RPA3161 ✈ 03-May-2013 ✈ KBTV - KDCA

Flight Track Log - Related Links

Times and Time Zones

All times are in EDT time to prevent confusion due to time zone crossing. See the RPA3161 flight status page for this flight to view local times or setup timezone preferences in your user account.

Time Position Orientation Groundspeed Altitude Reporting Facility
EDT Latitude Longitude Course Direction KTS MPH feet Rate Location/Type
01:10PM 44.1842 -73.2560 195° South  Level FlightAware Approximate
01:10PM 44.4497 -73.2950 198° South 248 285 7,300  Level Boston Center
01:11PM 44.0895 -73.2915 195° South  Level FlightAware Approximate
01:11PM 44.3747 -73.3172 192° South 268 308 10,700  Level Boston Center
01:12PM 43.9942 -73.3242 194° South  Level FlightAware Approximate
01:12PM 44.2914 -73.3247 184° South 299 344 13,600  Level Boston Center
01:13PM 43.8990 -73.3567 195° South  Level FlightAware Approximate
01:13PM 44.2017 -73.3350 185° South 318 366 16,200  Level Boston Center
01:14PM 43.8043 -73.3923 195° South  Level FlightAware Approximate
01:14PM 44.1056 -73.3422 183° South 340 391 18,200  Level Boston Center
01:15PM 43.7096 -73.4277 195° South  Level FlightAware Approximate
01:15PM 44.0078 -73.3522 184° South 352 405 20,800  Level Boston Center
01:16PM 43.6155 -73.4657 198° South  Level FlightAware Approximate
01:16PM 43.8931 -73.3619 183° South 373 429 23,200  Level Boston Center
01:17PM 43.7844 -73.3719 184° South 385 443 25,300 1,920 Climbing Boston Center
01:18PM 43.6739 -73.3844 185° South 391 450 27,100 1,620 Climbing Boston Center
01:19PM 43.5594 -73.3914 183° South 402 463 28,600 1,320 Climbing Boston Center
01:20PM 43.4447 -73.4008 183° South 407 468 29,800 660 Climbing Boston Center
01:21PM 43.3217 -73.4103 183° South 423 487 30,000 60 Climbing Boston Center
01:22PM 43.1986 -73.4228 184° South 441 507 30,000  Level Boston Center
01:24PM 43.0483 -73.4372 184° South 446 513 30,000  Level Boston Center
01:25PM 42.9275 -73.4467 183° South 441 507 30,000  Level Boston Center
01:26PM 42.8253 -73.4592 185° South 436 502 30,000  Level Boston Center
01:27PM 42.6917 -73.4711 184° South 436 502 30,000  Level Boston Center
01:28PM 42.5686 -73.4803 183° South 441 507 30,000  Level Boston Center
01:29PM 42.4475 -73.4925 184° South 441 507 30,000  Level Boston Center
01:30PM 42.3497 -73.4992 183° South 441 507 30,000  Level Boston Center
01:31PM 42.2225 -73.4997 180° South 441 507 30,000  Level Boston Center
01:32PM 42.1244 -73.5067 183° South 441 507 30,000  Level Boston Center
01:33PM 41.9617 -73.5289 186° South 454 522 30,000  Level Boston Center
01:34PM 41.8386 -73.5408 184° South 454 522 30,000  Level Boston Center
01:35PM 41.7175 -73.5525 184° South 449 517 30,000  Level Boston Center
01:37PM 41.4981 -73.6186 193° South 425 489 30,000  Level New York Center
01:38PM 41.3861 -73.6803 202° Southwest 430 495 30,000  Level New York Center
01:39PM 41.2742 -73.7389 201° Southwest 435 501 30,000  Level New York Center
01:40PM 41.1622 -73.8000 202° Southwest 435 501 30,000  Level New York Center
01:41PM 41.0864 -73.9122 228° Southwest 427 491 30,000  Level New York Center
01:42PM 41.0144 -74.0353 232° Southwest 419 482 30,000  Level New York Center
01:43PM 40.9422 -74.1581 232° Southwest 429 494 30,000  Level New York Center
01:44PM 40.8594 -74.2856 229° Southwest 429 494 30,000  Level New York Center
01:45PM 40.7889 -74.4053 232° Southwest 424 488 30,000 -840 Level New York Center
01:46PM 40.7144 -74.5275 231° Southwest 431 496 28,400 -1,020 Descending New York Center
01:47PM 40.6539 -74.6581 239° Southwest 425 489 28,000 -240 Descending New York Center
01:48PM 40.5994 -74.7889 241° Southwest 420 483 28,000  Level New York Center
01:49PM 40.5450 -74.9194 241° Southwest 410 472 28,000  Level New York Center
01:50PM 40.4842 -75.0494 238° Southwest 405 466 28,000 -300 Level New York Center
01:51PM 40.3950 -75.1503 221° Southwest 411 473 27,500 -1,200 Descending New York Center
01:52PM 40.3078 -75.2483 221° Southwest 416 479 25,600 -1,920 Descending New York Center
01:53PM 40.2208 -75.3433 220° Southwest 416 479 23,800 -1,800 Descending New York Center
01:54PM 40.1358 -75.4381 220° Southwest 416 479 22,000 -900 Descending New York Center
01:55PM 40.0508 -75.5300 220° Southwest 411 473 22,000  Level New York Center
01:56PM 39.9658 -75.6244 220° Southwest 406 467 22,000  Level New York Center
01:57PM 39.8906 -75.7275 226° Southwest 394 453 22,000 -300 Level New York Center
01:58PM 39.8317 -75.8394 236° Southwest 394 453 21,500 -780 Descending New York Center
01:59PM 39.7700 -75.9594 236° Southwest 394 453 20,500 -1,320 Descending New York Center
02:00PM 39.6667 -76.1500 235° Southwest 374 430 18,000 -1,800 Descending Potomac TRACON
02:01PM 39.6167 -76.2667 241° Southwest 364 419 15,700 -1,740 Descending Potomac TRACON
02:03PM 39.5833 -76.3833 250° West 331 381 14,400 -1,500 Descending Potomac TRACON
02:03PM 39.5000 -76.4500 212° Southwest 322 371 12,800 -1,320 Descending Potomac TRACON
02:04PM 39.4333 -76.5000 210° Southwest 306 352 12,000 -540 Descending Potomac TRACON
02:06PM 39.3500 -76.5500 205° Southwest 306 352 11,700 -840 Descending Potomac TRACON
02:07PM 39.2667 -76.6000 205° Southwest 296 341 10,300 -900 Descending Potomac TRACON
02:08PM 39.2000 -76.6500 210° Southwest 291 335 10,000 -180 Descending Potomac TRACON
02:09PM 39.1333 -76.7000 210° Southwest 298 343 10,000 -300 Level Potomac TRACON
02:10PM 39.0667 -76.7833 224° Southwest 293 337 9,500 -1,620 Descending Potomac TRACON
02:11PM 39.0167 -76.8500 226° Southwest 301 346 6,700 -1,800 Descending Potomac TRACON
02:12PM 38.9500 -76.9167 218° Southwest 269 310 6,000 -360 Descending Potomac TRACON
02:13PM 38.8833 -76.9500 201° Southwest 235 270 6,000  Level Potomac TRACON
02:14PM 38.8167 -76.9500 180° South 244 281 6,000  Level Potomac TRACON
02:15PM 38.7667 -76.9500 180° South 208 239 6,000  Level Potomac TRACON
02:16PM 38.7167 -76.9333 165° South 188 216 6,000 -420 Level Potomac TRACON
02:17PM 38.6667 -76.9333 180° South 186 214 5,200 -480 Descending Potomac TRACON
02:18PM 38.6000 -76.9333 180° South 183 211 5,000 -600 Descending Potomac TRACON
02:19PM 38.5500 -76.9333 180° South 184 212 4,100 -540 Descending Potomac TRACON
02:20PM 38.5500 -76.9833 270° West 200 230 4,000 -60 Descending Potomac TRACON
02:21PM 38.6000 -77.0167 332° Northwest 182 209 4,000 -360 Level Potomac TRACON
02:22PM 38.6500 -77.0167 360° North 177 204 3,300 -720 Descending Potomac TRACON
02:23PM 38.7000 -77.0333 345° North 179 206 2,600 -720 Descending Potomac TRACON